Inspiration Lake — VROF3 — position and weather

sailwx.info

Track history (hours):
 
Tides and Currents Weather Stations Pressure Air Temp Water Temp Dewpoint Dewpoint Depression Visibility Wind Speed Wind Dir Waves Ship Positions

Inspiration Lake

Last reported at 2017-Oct-22 22:29 UTC. Time now 2017-Oct-23 02:45 UTC.
Position N 36°07' W 005°22'.

Length 180 m; draft 8 m.

Type: Cargo ship. MMSI: 477967400.

Date/timePositionNaut miles runAvg speedWind from/ knotsBaromVisibWave heightAir tempDewpointWater temp
2017-Oct-22 22:29N 36°07' W 005°22'3 4.5
2017-Oct-22 21:53N 36°06' W 005°19'3 1.4
2017-Oct-22 19:33N 36°06' W 005°15'1 3.5
2017-Oct-22 19:19N 36°05' W 005°15'4 0.6
2017-Oct-22 12:09N 36°07' W 005°11'0 1.1
2017-Oct-22 11:59N 36°07' W 005°11'1 1.1
2017-Oct-22 11:30N 36°06' W 005°11'21012.8
2017-Oct-21 19:01N 36°29' W 000°52'014.0
2017-Oct-21 19:00N 36°29' W 000°51'714.3
2017-Oct-21 18:30N 36°30' W 000°42'714.2
2017-Oct-21 18:00N 36°31' W 000°34'713.9
2017-Oct-21 17:30N 36°32' W 000°25'713.5
2017-Oct-21 17:00N 36°33' W 000°17'1013.1
2017-Oct-21 16:16N 36°35' W 000°05'413.1
2017-Oct-21 15:56N 36°36' E 000°00'613.2
2017-Oct-21 15:30N 36°37' E 000°07'713.1
2017-Oct-21 15:00N 36°39' E 000°15'713.0
2017-Oct-21 14:30N 36°40' E 000°23'1313.0
2017-Oct-21 13:30N 36°43' E 000°39'1213.3
2017-Oct-21 12:36N 36°45' E 000°53'113.3
2017-Oct-21 12:30N 36°45' E 000°55'713.2
2017-Oct-21 12:00N 36°46' E 001°03'59913.3
2017-Oct-19 15:02N 36°47' E 013°30'813.8
2017-Oct-19 14:28N 36°44' E 013°39'613.8
2017-Oct-19 14:00N 36°42' E 013°47'713.8
2017-Oct-19 13:31N 36°39' E 013°55'713.9
2017-Oct-19 13:00N 36°36' E 014°03'713.7
2017-Oct-19 12:30N 36°34' E 014°10'612.8
2017-Oct-19 12:00N 36°31' E 014°18'612.7
2017-Oct-19 11:30N 36°29' E 014°25'713.1
2017-Oct-19 11:00N 36°27' E 014°33'713.2
2017-Oct-19 10:29N 36°24' E 014°41'713.4
2017-Oct-19 10:00N 36°21' E 014°48'27114.0
2017-Oct-18 14:43N 35°21' E 020°14'  
Track history (hours):
 
Tides and Currents Weather Stations Pressure Air Temp Water Temp Dewpoint Dewpoint Depression Visibility Wind Speed Wind Dir Waves Ship Positions

Inspiration Lake

Last reported at 2017-Oct-22 22:29 UTC. Time now 2017-Oct-23 02:45 UTC.
Position N 36°07' W 005°22'.

Length 180 m; draft 8 m.

Type: Cargo ship. MMSI: 477967400.

Date/timePositionNaut miles runAvg speedWind from/ knotsBaromVisibWave heightAir tempDewpointWater temp
2017-Oct-22 22:29N 36°07' W 005°22'3 4.5
2017-Oct-22 21:53N 36°06' W 005°19'3 1.4
2017-Oct-22 19:33N 36°06' W 005°15'1 3.5
2017-Oct-22 19:19N 36°05' W 005°15'4 0.6
2017-Oct-22 12:09N 36°07' W 005°11'0 1.1
2017-Oct-22 11:59N 36°07' W 005°11'1 1.1
2017-Oct-22 11:30N 36°06' W 005°11'21012.8
2017-Oct-21 19:01N 36°29' W 000°52'014.0
2017-Oct-21 19:00N 36°29' W 000°51'714.3
2017-Oct-21 18:30N 36°30' W 000°42'714.2
2017-Oct-21 18:00N 36°31' W 000°34'713.9
2017-Oct-21 17:30N 36°32' W 000°25'713.5
2017-Oct-21 17:00N 36°33' W 000°17'1013.1
2017-Oct-21 16:16N 36°35' W 000°05'413.1
2017-Oct-21 15:56N 36°36' E 000°00'613.2
2017-Oct-21 15:30N 36°37' E 000°07'713.1
2017-Oct-21 15:00N 36°39' E 000°15'713.0
2017-Oct-21 14:30N 36°40' E 000°23'1313.0
2017-Oct-21 13:30N 36°43' E 000°39'1213.3
2017-Oct-21 12:36N 36°45' E 000°53'113.3
2017-Oct-21 12:30N 36°45' E 000°55'713.2
2017-Oct-21 12:00N 36°46' E 001°03'59913.3
2017-Oct-19 15:02N 36°47' E 013°30'813.8
2017-Oct-19 14:28N 36°44' E 013°39'613.8
2017-Oct-19 14:00N 36°42' E 013°47'713.8
2017-Oct-19 13:31N 36°39' E 013°55'713.9
2017-Oct-19 13:00N 36°36' E 014°03'713.7
2017-Oct-19 12:30N 36°34' E 014°10'612.8
2017-Oct-19 12:00N 36°31' E 014°18'612.7
2017-Oct-19 11:30N 36°29' E 014°25'713.1
2017-Oct-19 11:00N 36°27' E 014°33'713.2
2017-Oct-19 10:29N 36°24' E 014°41'713.4
2017-Oct-19 10:00N 36°21' E 014°48'27114.0
2017-Oct-18 14:43N 35°21' E 020°14'  

Dump ship's entire track history